createdAt,value
2019-03-11T00:04:51.795Z,96314.00
2019-03-11T00:09:54.198Z,96314.00
2019-03-11T00:14:56.843Z,96314.00
2019-03-11T00:19:59.510Z,96306.00
2019-03-11T00:25:01.918Z,96293.00
2019-03-11T00:30:05.352Z,96280.00
2019-03-11T00:35:07.798Z,96308.00
2019-03-11T00:40:10.568Z,96314.00
2019-03-11T00:45:13.038Z,96307.00
2019-03-11T00:50:16.437Z,96303.00
2019-03-11T00:55:19.063Z,96309.00
2019-03-11T01:00:28.475Z,96317.00
2019-03-11T01:05:30.892Z,96329.00
2019-03-11T01:10:33.287Z,96325.00
2019-03-11T01:15:35.753Z,96315.00
2019-03-11T01:20:38.375Z,96312.00
2019-03-11T01:25:40.812Z,96316.00
2019-03-11T01:30:43.634Z,96333.00
2019-03-11T01:35:46.238Z,96309.00
2019-03-11T01:40:49.423Z,96307.00
2019-03-11T01:45:51.424Z,96296.00
2019-03-11T01:50:53.519Z,96302.00
2019-03-11T01:55:55.567Z,96292.00
2019-03-11T02:00:57.978Z,96290.00
2019-03-11T02:06:00.378Z,96294.00
2019-03-11T02:11:02.882Z,96279.00
2019-03-11T02:16:05.290Z,96286.00
2019-03-11T02:21:07.877Z,96283.00
2019-03-11T02:26:10.368Z,96295.00
2019-03-11T02:31:12.760Z,96295.00
2019-03-11T02:36:15.356Z,96297.00
2019-03-11T02:41:17.797Z,96289.00
2019-03-11T02:46:19.453Z,96284.00
2019-03-11T02:51:21.051Z,96286.00
2019-03-11T02:56:24.019Z,96278.00
2019-03-11T03:01:35.953Z,96276.00
2019-03-11T03:06:38.404Z,96284.00
2019-03-11T03:11:40.981Z,96284.00
2019-03-11T03:16:43.379Z,96284.00
2019-03-11T03:21:46.446Z,96274.00
2019-03-11T03:26:48.985Z,96276.00
2019-03-11T03:31:52.113Z,96272.00
2019-03-11T03:36:54.664Z,96259.00
2019-03-11T03:41:57.761Z,96260.00
2019-03-11T03:47:00.237Z,96253.00
2019-03-11T03:52:02.816Z,96268.00
2019-03-11T03:57:05.327Z,96253.00
2019-03-11T04:02:07.841Z,96241.00
2019-03-11T04:07:10.270Z,96245.00
2019-03-11T04:12:12.670Z,96221.00
2019-03-11T04:17:15.485Z,96217.00
2019-03-11T04:22:18.081Z,96203.00
2019-03-11T04:27:20.568Z,96195.00
2019-03-11T04:32:23.119Z,96194.00
2019-03-11T04:37:26.457Z,96174.00
2019-03-11T04:42:28.862Z,96175.00
2019-03-11T04:47:31.516Z,96159.00
2019-03-11T04:52:34.813Z,96150.00
2019-03-11T04:57:47.529Z,96143.00
2019-03-11T05:02:49.872Z,96131.00
2019-03-11T05:07:52.626Z,96128.00
2019-03-11T05:12:54.939Z,96111.00
2019-03-11T05:17:57.436Z,96130.00
2019-03-11T05:23:01.508Z,96117.00
2019-03-11T05:28:04.540Z,96125.00
2019-03-11T05:33:07.215Z,96142.00
2019-03-11T05:38:09.639Z,96123.00
2019-03-11T05:43:12.195Z,96120.00
2019-03-11T05:48:15.426Z,96106.00
2019-03-11T05:53:18.276Z,96112.00
2019-03-11T05:58:21.705Z,96096.00
2019-03-11T06:03:24.431Z,96081.00
2019-03-11T06:08:27.509Z,96068.00
2019-03-11T06:13:35.898Z,96044.00
2019-03-11T06:18:46.681Z,96047.00
2019-03-11T06:23:49.473Z,96053.00
2019-03-11T06:28:51.921Z,96044.00
2019-03-11T06:33:54.650Z,96051.00
2019-03-11T06:39:05.342Z,96052.00
2019-03-11T06:44:01.391Z,96040.00
2019-03-11T06:49:03.959Z,96026.00
2019-03-11T06:54:11.935Z,96030.00
2019-03-11T06:59:14.448Z,96021.00
2019-03-11T07:04:17.201Z,96028.00
2019-03-11T07:09:20.245Z,96037.00
2019-03-11T07:14:22.785Z,96031.00
2019-03-11T07:19:25.587Z,96061.00
2019-03-11T07:24:29.220Z,96059.00
2019-03-11T07:29:31.771Z,96062.00
2019-03-11T07:34:34.803Z,96169.00
2019-03-11T07:39:37.531Z,96150.00
2019-03-11T07:44:40.079Z,96130.00
2019-03-11T07:49:42.457Z,96122.00
2019-03-11T07:54:45.759Z,96120.00
2019-03-11T07:59:48.296Z,96114.00
2019-03-11T08:04:59.490Z,96095.00
2019-03-11T08:10:37.044Z,96101.00
2019-03-11T08:15:43.926Z,96102.00
2019-03-11T08:20:48.023Z,96101.00
2019-03-11T08:25:52.233Z,96093.00
2019-03-11T08:30:55.885Z,96103.00
2019-03-11T08:36:05.953Z,96098.00
2019-03-11T08:41:07.383Z,96092.00
2019-03-11T08:46:09.823Z,96087.00
2019-03-11T08:51:14.587Z,96057.00
2019-03-11T08:56:22.006Z,96112.00
2019-03-11T09:01:29.324Z,96127.00
2019-03-11T09:06:33.286Z,96129.00
2019-03-11T09:11:38.662Z,96115.00
2019-03-11T09:17:05.713Z,96148.00
2019-03-11T09:22:43.704Z,96154.00
2019-03-11T09:27:46.516Z,96148.00
2019-03-11T09:32:49.908Z,96140.00
2019-03-11T09:37:52.364Z,96161.00
2019-03-11T09:42:56.501Z,96159.00
2019-03-11T09:47:59.054Z,96171.00
2019-03-11T09:53:01.525Z,96180.00
2019-03-11T09:58:04.666Z,96180.00
2019-03-11T10:03:07.092Z,96187.00
2019-03-11T10:08:10.907Z,96192.00
2019-03-11T10:13:13.821Z,96203.00
2019-03-11T10:18:16.357Z,96229.00
2019-03-11T10:23:18.968Z,96228.00
2019-03-11T10:28:21.367Z,96213.00
2019-03-11T10:33:23.801Z,96222.00
2019-03-11T10:38:27.091Z,96239.00
2019-03-11T10:43:29.465Z,96244.00
2019-03-11T10:48:50.272Z,96248.00
2019-03-11T10:53:53.191Z,96247.00
2019-03-11T11:04:51.185Z,96248.00
2019-03-11T11:09:54.436Z,96266.00
2019-03-11T11:14:57.674Z,96256.00
2019-03-11T11:20:03.740Z,96245.00
2019-03-11T11:25:20.205Z,96264.00
2019-03-11T11:30:24.291Z,96274.00
2019-03-11T11:35:29.436Z,96277.00
2019-03-11T11:40:33.720Z,96288.00
2019-03-11T11:45:38.958Z,96291.00
2019-03-11T11:50:54.922Z,96272.00
2019-03-11T11:55:59.242Z,96289.00
2019-03-11T12:01:01.711Z,96292.00
2019-03-11T12:06:04.912Z,96265.00
2019-03-11T12:11:07.462Z,96278.00
2019-03-11T12:16:10.121Z,96282.00
2019-03-11T12:21:12.589Z,96273.00
2019-03-11T12:26:15.181Z,96268.00
2019-03-11T12:31:22.796Z,96270.00
2019-03-11T12:36:32.996Z,96260.00
2019-03-11T12:41:35.851Z,96245.00
2019-03-11T12:46:39.048Z,96261.00
2019-03-11T12:51:49.277Z,96251.00
2019-03-11T12:56:45.967Z,96257.00
2019-03-11T13:01:48.391Z,96257.00
2019-03-11T13:06:51.517Z,96257.00
2019-03-11T13:11:54.308Z,96255.00
2019-03-11T13:16:56.983Z,96227.00
2019-03-11T13:22:01.350Z,96234.00
2019-03-11T13:27:04.244Z,96271.00
2019-03-11T13:32:06.870Z,96290.00
2019-03-11T13:37:08.243Z,96356.00
2019-03-11T13:42:10.100Z,96353.00
2019-03-11T13:47:11.429Z,96318.00
2019-03-11T13:52:13.315Z,96309.00
2019-03-11T13:57:16.854Z,96305.00
2019-03-11T14:02:19.243Z,96309.00
2019-03-11T14:07:22.408Z,96312.00
2019-03-11T14:12:24.824Z,96304.00
2019-03-11T14:17:27.625Z,96307.00
2019-03-11T14:22:31.012Z,96297.00
2019-03-11T14:27:34.432Z,96283.00
2019-03-11T14:32:37.205Z,96306.00
2019-03-11T14:37:39.901Z,96358.00
2019-03-11T14:42:42.363Z,96376.00
2019-03-11T14:47:45.958Z,96385.00
2019-03-11T14:52:48.884Z,96389.00
2019-03-11T14:57:54.509Z,96373.00
2019-03-11T15:03:08.667Z,96367.00
2019-03-11T15:08:14.041Z,96377.00
2019-03-11T15:13:16.883Z,96384.00
2019-03-11T15:18:19.503Z,96393.00
2019-03-11T15:23:50.649Z,96398.00
2019-03-11T15:29:17.693Z,96390.00
2019-03-11T15:34:23.189Z,96392.00
2019-03-11T15:39:25.718Z,96394.00
2019-03-11T15:44:30.104Z,96429.00
2019-03-11T15:49:33.102Z,96439.00
2019-03-11T15:54:36.844Z,96424.00
2019-03-11T15:59:40.332Z,96440.00
2019-03-11T16:04:43.193Z,96424.00
2019-03-11T16:09:45.791Z,96436.00
2019-03-11T16:14:49.636Z,96444.00
2019-03-11T16:19:52.863Z,96452.00
2019-03-11T16:24:55.801Z,96448.00
2019-03-11T16:29:57.273Z,96438.00
2019-03-11T16:35:00.322Z,96440.00
2019-03-11T16:46:26.514Z,96451.00
2019-03-11T16:51:56.274Z,96450.00
2019-03-11T16:57:03.603Z,96461.00
2019-03-11T17:02:08.430Z,96468.00
2019-03-11T17:07:11.120Z,96494.00
2019-03-11T17:12:13.547Z,96488.00
2019-03-11T17:17:37.760Z,96491.00
2019-03-11T17:23:17.236Z,96488.00
2019-03-11T17:29:03.719Z,96502.00
2019-03-11T17:34:40.788Z,96503.00
2019-03-11T17:39:44.371Z,96523.00
2019-03-11T17:44:51.410Z,96532.00
2019-03-11T17:49:56.125Z,96533.00
2019-03-11T17:55:25.625Z,96547.00
2019-03-11T18:00:55.581Z,96544.00
2019-03-11T18:56:49.678Z,96608.00
2019-03-11T19:07:32.749Z,96614.00
2019-03-11T19:18:50.938Z,96604.00
2019-03-11T19:23:57.461Z,96612.00
2019-03-11T19:29:00.111Z,96614.00
2019-03-11T19:34:03.875Z,96612.00
2019-03-11T19:39:10.466Z,96595.00
2019-03-11T19:44:14.652Z,96604.00
2019-03-11T19:49:18.370Z,96614.00
2019-03-11T19:54:22.412Z,96614.00
2019-03-11T19:59:25.113Z,96616.00
2019-03-11T20:04:29.352Z,96611.00
2019-03-11T20:09:34.356Z,96619.00
2019-03-11T20:15:05.106Z,96626.00
2019-03-11T20:43:45.110Z,96625.00
2019-03-11T21:55:40.991Z,96589.00
2019-03-11T22:00:44.710Z,96590.00
2019-03-11T22:06:00.474Z,96597.00
2019-03-11T22:17:24.636Z,96600.00
2019-03-11T22:23:06.765Z,96602.00
2019-03-11T22:34:02.910Z,96616.00
2019-03-11T22:39:41.258Z,96620.00
2019-03-11T22:45:01.512Z,96634.00
2019-03-11T22:56:06.037Z,96664.00
2019-03-11T23:01:15.648Z,96637.00
2019-03-11T23:06:20.828Z,96656.00
2019-03-11T23:11:24.909Z,96652.00
2019-03-11T23:16:27.468Z,96640.00
2019-03-11T23:21:30.375Z,96656.00
2019-03-11T23:26:35.504Z,96654.00
2019-03-11T23:32:06.412Z,96663.00
2019-03-11T23:37:12.297Z,96683.00
